sensor_id;sensor_type;location;lat;lon;timestamp;P1;durP1;ratioP1;P2;durP2;ratioP2
2652;SDS011;1336;48.692;9.144;2024-01-30T06:00:30;6.93;;;5.40;;
2652;SDS011;1336;48.692;9.144;2024-01-30T06:01:22;6.13;;;5.53;;
2652;SDS011;1336;48.692;9.144;2024-01-30T06:02:13;6.68;;;6.03;;
2652;SDS011;1336;48.692;9.144;2024-01-30T06:03:05;7.20;;;6.03;;
2652;SDS011;1336;48.692;9.144;2024-01-30T06:03:57;6.68;;;6.03;;
2652;SDS011;1336;48.692;9.144;2024-01-30T06:04:48;6.50;;;5.80;;
2652;SDS011;1336;48.692;9.144;2024-01-30T06:05:39;7.03;;;6.32;;
2652;SDS011;1336;48.692;9.144;2024-01-30T06:06:31;6.47;;;5.32;;
2652;SDS011;1336;48.692;9.144;2024-01-30T06:07:22;6.57;;;5.90;;
2652;SDS011;1336;48.692;9.144;2024-01-30T06:08:14;6.95;;;6.28;;
2652;SDS011;1336;48.692;9.144;2024-01-30T06:09:05;6.00;;;5.50;;
2652;SDS011;1336;48.692;9.144;2024-01-30T06:09:58;6.00;;;5.40;;
2652;SDS011;1336;48.692;9.144;2024-01-30T06:10:51;6.40;;;5.80;;
2652;SDS011;1336;48.692;9.144;2024-01-30T06:11:42;6.32;;;5.75;;
2652;SDS011;1336;48.692;9.144;2024-01-30T06:12:34;6.32;;;5.72;;
2652;SDS011;1336;48.692;9.144;2024-01-30T06:13:25;6.30;;;5.22;;
2652;SDS011;1336;48.692;9.144;2024-01-30T06:14:16;7.43;;;5.68;;
2652;SDS011;1336;48.692;9.144;2024-01-30T06:15:09;6.60;;;6.00;;
2652;SDS011;1336;48.692;9.144;2024-01-30T06:16:03;6.13;;;5.60;;
2652;SDS011;1336;48.692;9.144;2024-01-30T06:16:56;6.38;;;5.78;;
2652;SDS011;1336;48.692;9.144;2024-01-30T06:17:47;6.75;;;6.05;;
2652;SDS011;1336;48.692;9.144;2024-01-30T06:18:38;7.70;;;6.03;;
2652;SDS011;1336;48.692;9.144;2024-01-30T06:19:30;11.05;;;6.35;;
2652;SDS011;1336;48.692;9.144;2024-01-30T06:20:21;6.40;;;5.80;;
2652;SDS011;1336;48.692;9.144;2024-01-30T06:21:14;6.78;;;5.95;;
2652;SDS011;1336;48.692;9.144;2024-01-30T06:22:05;7.10;;;6.40;;
2652;SDS011;1336;48.692;9.144;2024-01-30T06:22:56;5.93;;;5.43;;
2652;SDS011;1336;48.692;9.144;2024-01-30T06:23:48;5.93;;;5.43;;
2652;SDS011;1336;48.692;9.144;2024-01-30T06:24:39;6.45;;;5.75;;
2652;SDS011;1336;48.692;9.144;2024-01-30T06:25:30;6.28;;;5.68;;
2652;SDS011;1336;48.692;9.144;2024-01-30T06:26:22;6.28;;;5.68;;
2652;SDS011;1336;48.692;9.144;2024-01-30T06:27:13;7.05;;;6.15;;
2652;SDS011;1336;48.692;9.144;2024-01-30T06:28:04;7.88;;;6.90;;
2652;SDS011;1336;48.692;9.144;2024-01-30T06:28:57;6.47;;;5.88;;
2652;SDS011;1336;48.692;9.144;2024-01-30T06:29:48;7.18;;;6.47;;
2652;SDS011;1336;48.692;9.144;2024-01-30T06:30:39;6.90;;;6.30;;
2652;SDS011;1336;48.692;9.144;2024-01-30T06:31:32;8.27;;;6.50;;
2652;SDS011;1336;48.692;9.144;2024-01-30T06:32:23;7.18;;;6.47;;
2652;SDS011;1336;48.692;9.144;2024-01-30T06:33:14;8.23;;;6.60;;
2652;SDS011;1336;48.692;9.144;2024-01-30T06:34:06;7.78;;;6.97;;
2652;SDS011;1336;48.692;9.144;2024-01-30T06:34:58;8.15;;;7.30;;
2652;SDS011;1336;48.692;9.144;2024-01-30T06:35:49;8.38;;;7.63;;
2652;SDS011;1336;48.692;9.144;2024-01-30T06:36:41;10.80;;;8.82;;
2652;SDS011;1336;48.692;9.144;2024-01-30T06:37:32;12.57;;;9.40;;
2652;SDS011;1336;48.692;9.144;2024-01-30T06:38:23;13.73;;;9.07;;
2652;SDS011;1336;48.692;9.144;2024-01-30T06:39:15;11.25;;;8.85;;
2652;SDS011;1336;48.692;9.144;2024-01-30T06:40:06;13.68;;;10.15;;
2652;SDS011;1336;48.692;9.144;2024-01-30T06:40:59;12.18;;;9.18;;
2652;SDS011;1336;48.692;9.144;2024-01-30T06:41:50;10.35;;;8.02;;
2652;SDS011;1336;48.692;9.144;2024-01-30T06:42:42;11.70;;;8.02;;
2652;SDS011;1336;48.692;9.144;2024-01-30T06:43:33;11.75;;;8.20;;
2652;SDS011;1336;48.692;9.144;2024-01-30T06:44:25;12.90;;;9.25;;
2652;SDS011;1336;48.692;9.144;2024-01-30T06:45:16;13.25;;;8.63;;
2652;SDS011;1336;48.692;9.144;2024-01-30T06:46:07;8.57;;;7.63;;
2652;SDS011;1336;48.692;9.144;2024-01-30T06:47:00;11.35;;;7.45;;
2652;SDS011;1336;48.692;9.144;2024-01-30T06:47:51;9.25;;;7.90;;
2652;SDS011;1336;48.692;9.144;2024-01-30T06:48:43;10.05;;;7.75;;
2652;SDS011;1336;48.692;9.144;2024-01-30T06:49:35;11.48;;;7.35;;
2652;SDS011;1336;48.692;9.144;2024-01-30T06:50:28;7.63;;;6.93;;
2652;SDS011;1336;48.692;9.144;2024-01-30T06:51:19;8.18;;;7.38;;
2652;SDS011;1336;48.692;9.144;2024-01-30T06:52:11;8.63;;;7.75;;
2652;SDS011;1336;48.692;9.144;2024-01-30T06:53:02;8.88;;;8.02;;
2652;SDS011;1336;48.692;9.144;2024-01-30T06:53:53;10.18;;;8.90;;
2652;SDS011;1336;48.692;9.144;2024-01-30T06:54:45;9.63;;;8.63;;
2652;SDS011;1336;48.692;9.144;2024-01-30T06:55:36;9.90;;;9.00;;
2652;SDS011;1336;48.692;9.144;2024-01-30T06:56:29;10.50;;;9.50;;
2652;SDS011;1336;48.692;9.144;2024-01-30T06:57:20;12.55;;;9.85;;
2652;SDS011;1336;48.692;9.144;2024-01-30T06:58:11;12.75;;;9.43;;
2652;SDS011;1336;48.692;9.144;2024-01-30T06:59:03;9.93;;;9.05;;
2652;SDS011;1336;48.692;9.144;2024-01-30T06:59:55;10.50;;;9.50;;
2652;SDS011;1336;48.692;9.144;2024-01-30T07:00:46;10.10;;;9.10;;
2652;SDS011;1336;48.692;9.144;2024-01-30T07:01:38;10.77;;;8.80;;
2652;SDS011;1336;48.692;9.144;2024-01-30T07:02:30;9.40;;;8.43;;
2652;SDS011;1336;48.692;9.144;2024-01-30T07:03:21;8.90;;;8.10;;
2652;SDS011;1336;48.692;9.144;2024-01-30T07:04:13;8.55;;;7.60;;
2652;SDS011;1336;48.692;9.144;2024-01-30T07:05:06;9.38;;;8.55;;
2652;SDS011;1336;48.692;9.144;2024-01-30T07:05:58;8.07;;;7.35;;
2652;SDS011;1336;48.692;9.144;2024-01-30T07:06:49;7.65;;;6.88;;
2652;SDS011;1336;48.692;9.144;2024-01-30T07:07:43;8.00;;;7.20;;
2652;SDS011;1336;48.692;9.144;2024-01-30T07:08:34;7.95;;;7.15;;
2652;SDS011;1336;48.692;9.144;2024-01-30T07:09:27;7.57;;;6.80;;
2652;SDS011;1336;48.692;9.144;2024-01-30T07:10:19;7.55;;;6.78;;
2652;SDS011;1336;48.692;9.144;2024-01-30T07:11:10;6.20;;;5.60;;
2652;SDS011;1336;48.692;9.144;2024-01-30T07:12:03;7.28;;;6.45;;
2652;SDS011;1336;48.692;9.144;2024-01-30T07:12:54;6.45;;;5.80;;
2652;SDS011;1336;48.692;9.144;2024-01-30T07:13:45;6.80;;;6.10;;
2652;SDS011;1336;48.692;9.144;2024-01-30T07:14:38;8.02;;;7.18;;
2652;SDS011;1336;48.692;9.144;2024-01-30T07:15:29;10.55;;;7.07;;
2652;SDS011;1336;48.692;9.144;2024-01-30T07:16:21;7.88;;;7.07;;
2652;SDS011;1336;48.692;9.144;2024-01-30T07:17:12;8.25;;;7.45;;
2652;SDS011;1336;48.692;9.144;2024-01-30T07:18:06;7.18;;;6.47;;
2652;SDS011;1336;48.692;9.144;2024-01-30T07:18:57;6.60;;;5.93;;
2652;SDS011;1336;48.692;9.144;2024-01-30T07:19:48;9.30;;;6.70;;
2652;SDS011;1336;48.692;9.144;2024-01-30T07:20:41;6.75;;;6.05;;
2652;SDS011;1336;48.692;9.144;2024-01-30T07:21:36;6.85;;;6.15;;
2652;SDS011;1336;48.692;9.144;2024-01-30T07:22:27;6.90;;;6.20;;
2652;SDS011;1336;48.692;9.144;2024-01-30T07:23:19;6.68;;;6.00;;
2652;SDS011;1336;48.692;9.144;2024-01-30T07:24:10;9.18;;;6.88;;
2652;SDS011;1336;48.692;9.144;2024-01-30T07:25:02;7.80;;;6.18;;
2652;SDS011;1336;48.692;9.144;2024-01-30T07:25:53;7.20;;;6.32;;
2652;SDS011;1336;48.692;9.144;2024-01-30T07:26:44;7.78;;;7.07;;
2652;SDS011;1336;48.692;9.144;2024-01-30T07:27:36;8.38;;;7.45;;
2652;SDS011;1336;48.692;9.144;2024-01-30T07:28:27;9.35;;;7.88;;
2652;SDS011;1336;48.692;9.144;2024-01-30T07:29:19;7.68;;;6.93;;
2652;SDS011;1336;48.692;9.144;2024-01-30T07:30:12;7.85;;;7.05;;
2652;SDS011;1336;48.692;9.144;2024-01-30T07:31:03;11.48;;;8.77;;
2652;SDS011;1336;48.692;9.144;2024-01-30T07:31:56;10.05;;;8.60;;
2652;SDS011;1336;48.692;9.144;2024-01-30T07:32:47;10.93;;;8.88;;
2652;SDS011;1336;48.692;9.144;2024-01-30T07:33:40;9.55;;;8.07;;
2652;SDS011;1336;48.692;9.144;2024-01-30T07:34:33;10.75;;;9.65;;
2652;SDS011;1336;48.692;9.144;2024-01-30T07:35:24;9.38;;;8.48;;
2652;SDS011;1336;48.692;9.144;2024-01-30T07:36:16;7.80;;;7.00;;
2652;SDS011;1336;48.692;9.144;2024-01-30T07:37:07;7.65;;;6.88;;
2652;SDS011;1336;48.692;9.144;2024-01-30T07:37:58;9.07;;;6.57;;
2652;SDS011;1336;48.692;9.144;2024-01-30T07:38:50;7.57;;;6.45;;
2652;SDS011;1336;48.692;9.144;2024-01-30T07:39:44;9.35;;;7.30;;
2652;SDS011;1336;48.692;9.144;2024-01-30T07:40:35;9.55;;;7.38;;
2652;SDS011;1336;48.692;9.144;2024-01-30T07:41:27;6.65;;;6.00;;
2652;SDS011;1336;48.692;9.144;2024-01-30T07:42:18;7.95;;;7.13;;
2652;SDS011;1336;48.692;9.144;2024-01-30T07:43:09;7.72;;;6.60;;
2652;SDS011;1336;48.692;9.144;2024-01-30T07:44:02;6.93;;;6.25;;
2652;SDS011;1336;48.692;9.144;2024-01-30T07:44:54;8.10;;;5.60;;
2652;SDS011;1336;48.692;9.144;2024-01-30T07:45:46;6.45;;;5.85;;
2652;SDS011;1336;48.692;9.144;2024-01-30T07:46:37;6.03;;;5.53;;
2652;SDS011;1336;48.692;9.144;2024-01-30T07:47:29;8.55;;;6.50;;
2652;SDS011;1336;48.692;9.144;2024-01-30T07:48:20;7.43;;;6.72;;
2652;SDS011;1336;48.692;9.144;2024-01-30T07:49:13;9.38;;;6.80;;
2652;SDS011;1336;48.692;9.144;2024-01-30T07:50:05;7.70;;;6.95;;
2652;SDS011;1336;48.692;9.144;2024-01-30T07:50:57;7.60;;;6.93;;
2652;SDS011;1336;48.692;9.144;2024-01-30T07:51:48;8.93;;;8.02;;
2652;SDS011;1336;48.692;9.144;2024-01-30T07:52:41;8.27;;;7.30;;
2652;SDS011;1336;48.692;9.144;2024-01-30T07:53:32;7.80;;;7.00;;
2652;SDS011;1336;48.692;9.144;2024-01-30T07:54:24;8.00;;;6.32;;
2652;SDS011;1336;48.692;9.144;2024-01-30T07:55:15;8.43;;;7.63;;
2652;SDS011;1336;48.692;9.144;2024-01-30T07:56:06;11.88;;;7.65;;
2652;SDS011;1336;48.692;9.144;2024-01-30T07:56:59;7.75;;;6.72;;
2652;SDS011;1336;48.692;9.144;2024-01-30T07:57:51;7.60;;;6.90;;
2652;SDS011;1336;48.692;9.144;2024-01-30T07:58:42;8.52;;;6.47;;
2652;SDS011;1336;48.692;9.144;2024-01-30T07:59:34;6.88;;;6.18;;
2652;SDS011;1336;48.692;9.144;2024-01-30T08:00:25;7.55;;;6.47;;
2652;SDS011;1336;48.692;9.144;2024-01-30T08:01:19;7.68;;;6.50;;
2652;SDS011;1336;48.692;9.144;2024-01-30T08:02:12;8.52;;;6.82;;
2652;SDS011;1336;48.692;9.144;2024-01-30T08:03:04;6.82;;;6.05;;
2652;SDS011;1336;48.692;9.144;2024-01-30T08:03:55;7.03;;;6.32;;
2652;SDS011;1336;48.692;9.144;2024-01-30T08:04:48;9.07;;;6.35;;
2652;SDS011;1336;48.692;9.144;2024-01-30T08:05:40;5.65;;;5.13;;
2652;SDS011;1336;48.692;9.144;2024-01-30T08:06:31;6.50;;;5.85;;
2652;SDS011;1336;48.692;9.144;2024-01-30T08:07:22;6.85;;;5.40;;
2652;SDS011;1336;48.692;9.144;2024-01-30T08:08:14;9.30;;;6.93;;
2652;SDS011;1336;48.692;9.144;2024-01-30T08:09:05;8.07;;;5.80;;
2652;SDS011;1336;48.692;9.144;2024-01-30T08:09:58;6.18;;;5.68;;
2652;SDS011;1336;48.692;9.144;2024-01-30T08:10:49;6.47;;;5.82;;
2652;SDS011;1336;48.692;9.144;2024-01-30T08:11:41;6.88;;;6.18;;
2652;SDS011;1336;48.692;9.144;2024-01-30T08:12:32;6.38;;;5.70;;
2652;SDS011;1336;48.692;9.144;2024-01-30T08:13:24;7.28;;;6.18;;
2652;SDS011;1336;48.692;9.144;2024-01-30T08:14:15;6.32;;;5.72;;
2652;SDS011;1336;48.692;9.144;2024-01-30T08:15:07;6.22;;;5.63;;
2652;SDS011;1336;48.692;9.144;2024-01-30T08:15:59;6.65;;;6.05;;
2652;SDS011;1336;48.692;9.144;2024-01-30T08:16:51;5.95;;;5.45;;
2652;SDS011;1336;48.692;9.144;2024-01-30T08:17:42;5.90;;;5.38;;
2652;SDS011;1336;48.692;9.144;2024-01-30T08:18:34;5.93;;;5.35;;
2652;SDS011;1336;48.692;9.144;2024-01-30T08:19:26;6.28;;;5.68;;
2652;SDS011;1336;48.692;9.144;2024-01-30T08:20:19;6.10;;;5.50;;
2652;SDS011;1336;48.692;9.144;2024-01-30T08:21:10;6.65;;;5.60;;
2652;SDS011;1336;48.692;9.144;2024-01-30T08:22:02;6.63;;;6.03;;
2652;SDS011;1336;48.692;9.144;2024-01-30T08:22:53;6.85;;;5.15;;
2652;SDS011;1336;48.692;9.144;2024-01-30T08:23:44;6.40;;;5.80;;
2652;SDS011;1336;48.692;9.144;2024-01-30T08:24:36;6.45;;;5.85;;
2652;SDS011;1336;48.692;9.144;2024-01-30T08:25:27;7.53;;;6.03;;
2652;SDS011;1336;48.692;9.144;2024-01-30T08:26:20;6.50;;;5.80;;
2652;SDS011;1336;48.692;9.144;2024-01-30T08:27:11;6.50;;;5.88;;
2652;SDS011;1336;48.692;9.144;2024-01-30T08:28:02;6.65;;;6.05;;
2652;SDS011;1336;48.692;9.144;2024-01-30T08:28:55;7.10;;;6.00;;
2652;SDS011;1336;48.692;9.144;2024-01-30T08:29:46;7.07;;;6.35;;
2652;SDS011;1336;48.692;9.144;2024-01-30T08:30:37;6.72;;;6.13;;
2652;SDS011;1336;48.692;9.144;2024-01-30T08:31:29;9.30;;;6.80;;
2652;SDS011;1336;48.692;9.144;2024-01-30T08:32:21;7.20;;;6.50;;
2652;SDS011;1336;48.692;9.144;2024-01-30T08:33:13;6.90;;;6.30;;
2652;SDS011;1336;48.692;9.144;2024-01-30T08:34:04;6.85;;;6.15;;
2652;SDS011;1336;48.692;9.144;2024-01-30T08:34:57;7.55;;;6.78;;
2652;SDS011;1336;48.692;9.144;2024-01-30T08:35:49;7.63;;;6.80;;
2652;SDS011;1336;48.692;9.144;2024-01-30T08:36:41;7.93;;;7.13;;
2652;SDS011;1336;48.692;9.144;2024-01-30T08:37:32;7.88;;;6.65;;
2652;SDS011;1336;48.692;9.144;2024-01-30T08:38:26;7.45;;;6.80;;
2652;SDS011;1336;48.692;9.144;2024-01-30T08:39:18;7.20;;;6.40;;
2652;SDS011;1336;48.692;9.144;2024-01-30T08:40:10;9.45;;;7.82;;
2652;SDS011;1336;48.692;9.144;2024-01-30T08:41:02;8.90;;;7.70;;
2652;SDS011;1336;48.692;9.144;2024-01-30T08:41:53;9.30;;;7.93;;
2652;SDS011;1336;48.692;9.144;2024-01-30T08:42:45;8.50;;;7.65;;
2652;SDS011;1336;48.692;9.144;2024-01-30T08:43:36;10.18;;;7.85;;
2652;SDS011;1336;48.692;9.144;2024-01-30T08:44:27;8.82;;;7.50;;
2652;SDS011;1336;48.692;9.144;2024-01-30T08:45:19;12.40;;;7.57;;
2652;SDS011;1336;48.692;9.144;2024-01-30T08:46:10;9.20;;;7.22;;
2652;SDS011;1336;48.692;9.144;2024-01-30T08:47:02;8.15;;;6.80;;
2652;SDS011;1336;48.692;9.144;2024-01-30T08:47:54;7.97;;;7.15;;
2652;SDS011;1336;48.692;9.144;2024-01-30T08:48:46;8.80;;;7.20;;
2652;SDS011;1336;48.692;9.144;2024-01-30T08:49:38;9.18;;;7.72;;
2652;SDS011;1336;48.692;9.144;2024-01-30T08:50:29;9.45;;;7.80;;
2652;SDS011;1336;48.692;9.144;2024-01-30T08:51:22;10.38;;;8.43;;
2652;SDS011;1336;48.692;9.144;2024-01-30T08:52:14;9.18;;;7.53;;
2652;SDS011;1336;48.692;9.144;2024-01-30T08:53:05;8.10;;;7.30;;
2652;SDS011;1336;48.692;9.144;2024-01-30T08:53:56;7.93;;;7.13;;
2652;SDS011;1336;48.692;9.144;2024-01-30T08:54:48;7.40;;;6.70;;
2652;SDS011;1336;48.692;9.144;2024-01-30T08:55:39;7.15;;;6.45;;
2652;SDS011;1336;48.692;9.144;2024-01-30T08:56:31;7.80;;;6.30;;
2652;SDS011;1336;48.692;9.144;2024-01-30T08:57:22;15.35;;;7.28;;
2652;SDS011;1336;48.692;9.144;2024-01-30T08:58:32;8.02;;;6.88;;
2652;SDS011;1336;48.692;9.144;2024-01-30T08:59:24;6.75;;;5.93;;
2652;SDS011;1336;48.692;9.144;2024-01-30T09:00:15;6.80;;;6.10;;
2652;SDS011;1336;48.692;9.144;2024-01-30T09:01:06;6.22;;;5.63;;
2652;SDS011;1336;48.692;9.144;2024-01-30T09:01:58;7.00;;;5.82;;
2652;SDS011;1336;48.692;9.144;2024-01-30T09:02:50;7.90;;;5.82;;
2652;SDS011;1336;48.692;9.144;2024-01-30T09:03:41;5.90;;;5.40;;
2652;SDS011;1336;48.692;9.144;2024-01-30T09:04:35;7.65;;;6.15;;
2652;SDS011;1336;48.692;9.144;2024-01-30T09:05:26;7.60;;;5.45;;
2652;SDS011;1336;48.692;9.144;2024-01-30T09:06:18;6.63;;;5.95;;
2652;SDS011;1336;48.692;9.144;2024-01-30T09:07:11;6.72;;;5.57;;
2652;SDS011;1336;48.692;9.144;2024-01-30T09:08:03;6.53;;;5.63;;
2652;SDS011;1336;48.692;9.144;2024-01-30T09:08:55;6.28;;;5.55;;
2652;SDS011;1336;48.692;9.144;2024-01-30T09:09:48;7.40;;;6.57;;
2652;SDS011;1336;48.692;9.144;2024-01-30T09:10:39;7.78;;;5.70;;
2652;SDS011;1336;48.692;9.144;2024-01-30T09:11:31;6.05;;;5.43;;
2652;SDS011;1336;48.692;9.144;2024-01-30T09:12:22;6.95;;;5.70;;
2652;SDS011;1336;48.692;9.144;2024-01-30T09:13:14;6.80;;;6.20;;
2652;SDS011;1336;48.692;9.144;2024-01-30T09:14:06;6.78;;;6.07;;
2652;SDS011;1336;48.692;9.144;2024-01-30T09:14:57;6.50;;;5.65;;
2652;SDS011;1336;48.692;9.144;2024-01-30T09:15:49;6.28;;;5.78;;
2652;SDS011;1336;48.692;9.144;2024-01-30T09:16:41;6.97;;;6.00;;
2652;SDS011;1336;48.692;9.144;2024-01-30T09:17:32;8.20;;;6.55;;
2652;SDS011;1336;48.692;9.144;2024-01-30T09:18:23;8.27;;;6.50;;
2652;SDS011;1336;48.692;9.144;2024-01-30T09:19:15;7.93;;;6.45;;
2652;SDS011;1336;48.692;9.144;2024-01-30T09:20:08;7.10;;;6.40;;
2652;SDS011;1336;48.692;9.144;2024-01-30T09:20:59;6.75;;;6.10;;
2652;SDS011;1336;48.692;9.144;2024-01-30T09:21:51;6.13;;;5.63;;
2652;SDS011;1336;48.692;9.144;2024-01-30T09:22:43;8.18;;;5.35;;
2652;SDS011;1336;48.692;9.144;2024-01-30T09:23:35;7.65;;;6.63;;
2652;SDS011;1336;48.692;9.144;2024-01-30T09:24:27;9.23;;;7.47;;
2652;SDS011;1336;48.692;9.144;2024-01-30T09:25:19;7.55;;;6.88;;
2652;SDS011;1336;48.692;9.144;2024-01-30T09:26:11;7.93;;;7.13;;
2652;SDS011;1336;48.692;9.144;2024-01-30T09:27:02;7.78;;;7.07;;
2652;SDS011;1336;48.692;9.144;2024-01-30T09:27:54;7.70;;;6.40;;
2652;SDS011;1336;48.692;9.144;2024-01-30T09:28:46;8.18;;;7.38;;
2652;SDS011;1336;48.692;9.144;2024-01-30T09:29:37;9.60;;;7.32;;
2652;SDS011;1336;48.692;9.144;2024-01-30T09:30:29;8.40;;;7.25;;
2652;SDS011;1336;48.692;9.144;2024-01-30T09:31:20;10.75;;;7.93;;
2652;SDS011;1336;48.692;9.144;2024-01-30T09:32:12;8.85;;;7.95;;
2652;SDS011;1336;48.692;9.144;2024-01-30T09:33:03;9.75;;;8.23;;
2652;SDS011;1336;48.692;9.144;2024-01-30T09:33:54;8.15;;;7.25;;
2652;SDS011;1336;48.692;9.144;2024-01-30T09:34:47;7.40;;;6.47;;
2652;SDS011;1336;48.692;9.144;2024-01-30T09:35:38;7.07;;;6.22;;
2652;SDS011;1336;48.692;9.144;2024-01-30T09:36:30;7.38;;;6.00;;
2652;SDS011;1336;48.692;9.144;2024-01-30T09:37:21;6.00;;;5.38;;
2652;SDS011;1336;48.692;9.144;2024-01-30T09:38:14;6.75;;;5.90;;
2652;SDS011;1336;48.692;9.144;2024-01-30T09:39:05;5.85;;;5.35;;
2652;SDS011;1336;48.692;9.144;2024-01-30T09:39:56;6.00;;;4.95;;
2652;SDS011;1336;48.692;9.144;2024-01-30T09:40:51;6.05;;;5.43;;
2652;SDS011;1336;48.692;9.144;2024-01-30T09:41:45;6.10;;;5.13;;
2652;SDS011;1336;48.692;9.144;2024-01-30T09:42:40;5.68;;;4.97;;
2652;SDS011;1336;48.692;9.144;2024-01-30T09:43:32;5.22;;;4.70;;
2652;SDS011;1336;48.692;9.144;2024-01-30T09:44:24;5.78;;;4.97;;
2652;SDS011;1336;48.692;9.144;2024-01-30T09:45:17;5.55;;;4.93;;
2652;SDS011;1336;48.692;9.144;2024-01-30T09:46:11;5.30;;;4.80;;
2652;SDS011;1336;48.692;9.144;2024-01-30T09:47:03;4.50;;;4.10;;
2652;SDS011;1336;48.692;9.144;2024-01-30T09:47:56;5.32;;;4.82;;
2652;SDS011;1336;48.692;9.144;2024-01-30T09:48:50;5.25;;;4.70;;
2652;SDS011;1336;48.692;9.144;2024-01-30T09:49:42;4.57;;;4.18;;
2652;SDS011;1336;48.692;9.144;2024-01-30T09:50:34;5.93;;;4.57;;
2652;SDS011;1336;48.692;9.144;2024-01-30T09:51:27;4.88;;;4.38;;
2652;SDS011;1336;48.692;9.144;2024-01-30T09:52:18;5.63;;;4.50;;
2652;SDS011;1336;48.692;9.144;2024-01-30T09:53:10;5.15;;;4.00;;
2652;SDS011;1336;48.692;9.144;2024-01-30T09:54:03;5.28;;;4.75;;
2652;SDS011;1336;48.692;9.144;2024-01-30T09:54:54;5.60;;;4.50;;
2652;SDS011;1336;48.692;9.144;2024-01-30T09:55:47;5.35;;;4.82;;
2652;SDS011;1336;48.692;9.144;2024-01-30T09:56:38;5.53;;;4.00;;
2652;SDS011;1336;48.692;9.144;2024-01-30T09:57:29;5.30;;;4.47;;
2652;SDS011;1336;48.692;9.144;2024-01-30T09:58:21;5.13;;;4.32;;
2652;SDS011;1336;48.692;9.144;2024-01-30T09:59:12;5.78;;;4.40;;
2652;SDS011;1336;48.692;9.144;2024-01-30T10:00:04;4.57;;;3.92;;
2652;SDS011;1336;48.692;9.144;2024-01-30T10:00:59;5.28;;;4.20;;
2652;SDS011;1336;48.692;9.144;2024-01-30T10:01:50;4.47;;;4.07;;
2652;SDS011;1336;48.692;9.144;2024-01-30T10:02:41;4.63;;;4.20;;
2652;SDS011;1336;48.692;9.144;2024-01-30T10:03:34;5.22;;;4.72;;
2652;SDS011;1336;48.692;9.144;2024-01-30T10:04:25;4.50;;;3.95;;
2652;SDS011;1336;48.692;9.144;2024-01-30T10:05:16;4.55;;;4.15;;
2652;SDS011;1336;48.692;9.144;2024-01-30T10:06:10;4.28;;;3.88;;
2652;SDS011;1336;48.692;9.144;2024-01-30T10:07:02;4.70;;;4.25;;
2652;SDS011;1336;48.692;9.144;2024-01-30T10:07:53;3.92;;;3.53;;
2652;SDS011;1336;48.692;9.144;2024-01-30T10:08:45;3.90;;;3.60;;
2652;SDS011;1336;48.692;9.144;2024-01-30T10:09:38;22.60;;;18.70;;
2652;SDS011;1336;48.692;9.144;2024-01-30T10:10:30;16.15;;;12.80;;
2652;SDS011;1336;48.692;9.144;2024-01-30T10:11:21;12.35;;;8.70;;
2652;SDS011;1336;48.692;9.144;2024-01-30T10:12:12;8.52;;;7.35;;
2652;SDS011;1336;48.692;9.144;2024-01-30T10:13:04;4.78;;;4.28;;
2652;SDS011;1336;48.692;9.144;2024-01-30T10:13:55;5.72;;;4.30;;
2652;SDS011;1336;48.692;9.144;2024-01-30T10:14:46;4.32;;;3.72;;
2652;SDS011;1336;48.692;9.144;2024-01-30T10:15:38;3.72;;;3.42;;
2652;SDS011;1336;48.692;9.144;2024-01-30T10:16:30;4.63;;;3.80;;
2652;SDS011;1336;48.692;9.144;2024-01-30T10:17:21;4.55;;;4.10;;
2652;SDS011;1336;48.692;9.144;2024-01-30T10:18:17;3.88;;;3.47;;
2652;SDS011;1336;48.692;9.144;2024-01-30T10:19:08;6.60;;;3.95;;
2652;SDS011;1336;48.692;9.144;2024-01-30T10:19:59;5.20;;;3.40;;
2652;SDS011;1336;48.692;9.144;2024-01-30T10:20:51;4.05;;;3.65;;
2652;SDS011;1336;48.692;9.144;2024-01-30T10:21:42;5.80;;;3.60;;
2652;SDS011;1336;48.692;9.144;2024-01-30T10:22:34;3.60;;;3.30;;
2652;SDS011;1336;48.692;9.144;2024-01-30T10:23:25;3.80;;;3.50;;
2652;SDS011;1336;48.692;9.144;2024-01-30T10:24:17;3.70;;;3.40;;
2652;SDS011;1336;48.692;9.144;2024-01-30T10:25:10;3.55;;;3.25;;
2652;SDS011;1336;48.692;9.144;2024-01-30T10:26:02;3.92;;;3.50;;
2652;SDS011;1336;48.692;9.144;2024-01-30T10:26:53;3.78;;;3.47;;
2652;SDS011;1336;48.692;9.144;2024-01-30T10:27:45;3.50;;;3.20;;
2652;SDS011;1336;48.692;9.144;2024-01-30T10:28:36;5.88;;;3.15;;
2652;SDS011;1336;48.692;9.144;2024-01-30T10:29:28;4.38;;;3.55;;
2652;SDS011;1336;48.692;9.144;2024-01-30T10:30:20;4.38;;;3.45;;
2652;SDS011;1336;48.692;9.144;2024-01-30T10:31:11;3.95;;;3.15;;
2652;SDS011;1336;48.692;9.144;2024-01-30T10:32:06;3.67;;;3.10;;
2652;SDS011;1336;48.692;9.144;2024-01-30T10:32:59;8.57;;;3.20;;
2652;SDS011;1336;48.692;9.144;2024-01-30T10:33:50;3.38;;;3.08;;
2652;SDS011;1336;48.692;9.144;2024-01-30T10:34:41;3.72;;;3.30;;
2652;SDS011;1336;48.692;9.144;2024-01-30T10:35:33;6.18;;;3.30;;
2652;SDS011;1336;48.692;9.144;2024-01-30T10:36:25;3.70;;;2.90;;
2652;SDS011;1336;48.692;9.144;2024-01-30T10:37:18;3.63;;;3.03;;
2652;SDS011;1336;48.692;9.144;2024-01-30T10:38:10;3.85;;;3.00;;
2652;SDS011;1336;48.692;9.144;2024-01-30T10:39:03;4.35;;;3.13;;
2652;SDS011;1336;48.692;9.144;2024-01-30T10:39:56;4.97;;;3.10;;
2652;SDS011;1336;48.692;9.144;2024-01-30T10:40:55;4.38;;;2.78;;
2652;SDS011;1336;48.692;9.144;2024-01-30T10:41:47;4.20;;;2.90;;
2652;SDS011;1336;48.692;9.144;2024-01-30T10:42:40;4.68;;;4.07;;
2652;SDS011;1336;48.692;9.144;2024-01-30T10:43:35;3.63;;;3.33;;
2652;SDS011;1336;48.692;9.144;2024-01-30T10:44:26;3.72;;;3.42;;
2652;SDS011;1336;48.692;9.144;2024-01-30T10:45:20;3.63;;;3.33;;
2652;SDS011;1336;48.692;9.144;2024-01-30T10:46:15;3.53;;;2.83;;
2652;SDS011;1336;48.692;9.144;2024-01-30T10:47:09;4.30;;;3.08;;
2652;SDS011;1336;48.692;9.144;2024-01-30T10:48:03;3.95;;;3.03;;
2652;SDS011;1336;48.692;9.144;2024-01-30T10:48:56;4.85;;;3.20;;
2652;SDS011;1336;48.692;9.144;2024-01-30T10:49:48;3.08;;;2.50;;
2652;SDS011;1336;48.692;9.144;2024-01-30T10:50:40;3.20;;;2.90;;
2652;SDS011;1336;48.692;9.144;2024-01-30T10:51:32;2.60;;;2.40;;
2652;SDS011;1336;48.692;9.144;2024-01-30T10:52:23;4.15;;;3.30;;
2652;SDS011;1336;48.692;9.144;2024-01-30T10:53:16;3.05;;;2.75;;
2652;SDS011;1336;48.692;9.144;2024-01-30T10:54:08;3.75;;;2.80;;
2652;SDS011;1336;48.692;9.144;2024-01-30T10:55:01;3.65;;;2.70;;
2652;SDS011;1336;48.692;9.144;2024-01-30T10:55:57;3.05;;;2.75;;
2652;SDS011;1336;48.692;9.144;2024-01-30T10:56:49;3.15;;;2.85;;
2652;SDS011;1336;48.692;9.144;2024-01-30T10:57:40;3.47;;;3.13;;
2652;SDS011;1336;48.692;9.144;2024-01-30T10:58:33;4.63;;;2.70;;
2652;SDS011;1336;48.692;9.144;2024-01-30T10:59:24;5.22;;;3.10;;
2652;SDS011;1336;48.692;9.144;2024-01-30T11:00:18;3.35;;;2.90;;
2652;SDS011;1336;48.692;9.144;2024-01-30T11:01:13;3.10;;;2.53;;
2652;SDS011;1336;48.692;9.144;2024-01-30T11:02:05;3.47;;;2.70;;
2652;SDS011;1336;48.692;9.144;2024-01-30T11:02:58;3.17;;;2.60;;
2652;SDS011;1336;48.692;9.144;2024-01-30T11:03:49;3.65;;;3.10;;
2652;SDS011;1336;48.692;9.144;2024-01-30T11:04:40;5.00;;;3.00;;
2652;SDS011;1336;48.692;9.144;2024-01-30T11:05:33;3.20;;;2.55;;
2652;SDS011;1336;48.692;9.144;2024-01-30T11:06:24;3.53;;;2.90;;
2652;SDS011;1336;48.692;9.144;2024-01-30T11:07:17;2.80;;;2.58;;
2652;SDS011;1336;48.692;9.144;2024-01-30T11:08:11;4.10;;;3.00;;
2652;SDS011;1336;48.692;9.144;2024-01-30T11:09:03;2.92;;;2.47;;
2652;SDS011;1336;48.692;9.144;2024-01-30T11:10:00;5.57;;;3.03;;
2652;SDS011;1336;48.692;9.144;2024-01-30T11:10:54;2.75;;;2.35;;
2652;SDS011;1336;48.692;9.144;2024-01-30T11:11:49;2.80;;;2.60;;
2652;SDS011;1336;48.692;9.144;2024-01-30T11:12:41;2.78;;;2.58;;
2652;SDS011;1336;48.692;9.144;2024-01-30T11:13:33;2.95;;;2.65;;
2652;SDS011;1336;48.692;9.144;2024-01-30T11:14:27;3.53;;;2.90;;
2652;SDS011;1336;48.692;9.144;2024-01-30T11:15:18;3.78;;;3.35;;
2652;SDS011;1336;48.692;9.144;2024-01-30T11:16:09;3.88;;;2.42;;
2652;SDS011;1336;48.692;9.144;2024-01-30T11:17:03;2.40;;;2.20;;
2652;SDS011;1336;48.692;9.144;2024-01-30T11:17:55;2.83;;;2.55;;
2652;SDS011;1336;48.692;9.144;2024-01-30T11:18:49;3.25;;;2.95;;
2652;SDS011;1336;48.692;9.144;2024-01-30T11:19:42;3.20;;;2.55;;
2652;SDS011;1336;48.692;9.144;2024-01-30T11:20:33;2.72;;;2.50;;
2652;SDS011;1336;48.692;9.144;2024-01-30T11:21:26;4.80;;;2.83;;
2652;SDS011;1336;48.692;9.144;2024-01-30T11:22:19;3.17;;;2.83;;
2652;SDS011;1336;48.692;9.144;2024-01-30T11:23:11;2.75;;;2.55;;